sensor_id;sensor_type;location;lat;lon;timestamp;temperature;humidity
36446;DHT22;22472;50.848;-1.216;2022-08-19T00:01:36;20.80;99.90
36446;DHT22;22472;50.848;-1.216;2022-08-19T00:04:07;20.90;99.90
36446;DHT22;22472;50.848;-1.216;2022-08-19T00:06:35;20.90;99.90
36446;DHT22;22472;50.848;-1.216;2022-08-19T00:09:03;20.90;99.90
36446;DHT22;22472;50.848;-1.216;2022-08-19T00:11:31;20.90;99.90
36446;DHT22;22472;50.848;-1.216;2022-08-19T00:13:57;21.00;99.90
36446;DHT22;22472;50.848;-1.216;2022-08-19T00:16:26;21.00;99.90
36446;DHT22;22472;50.848;-1.216;2022-08-19T00:18:53;21.00;99.90
36446;DHT22;22472;50.848;-1.216;2022-08-19T00:21:21;21.00;99.90
36446;DHT22;22472;50.848;-1.216;2022-08-19T00:23:48;21.00;99.90
36446;DHT22;22472;50.848;-1.216;2022-08-19T00:26:15;20.90;99.90
36446;DHT22;22472;50.848;-1.216;2022-08-19T00:28:41;21.00;99.90
36446;DHT22;22472;50.848;-1.216;2022-08-19T00:31:09;21.00;99.90
36446;DHT22;22472;50.848;-1.216;2022-08-19T00:33:37;21.00;99.90
36446;DHT22;22472;50.848;-1.216;2022-08-19T00:36:07;20.90;99.90
36446;DHT22;22472;50.848;-1.216;2022-08-19T00:38:35;20.90;99.90
36446;DHT22;22472;50.848;-1.216;2022-08-19T00:41:02;20.90;99.90
36446;DHT22;22472;50.848;-1.216;2022-08-19T00:43:30;20.90;99.90
36446;DHT22;22472;50.848;-1.216;2022-08-19T00:45:58;20.90;99.90
36446;DHT22;22472;50.848;-1.216;2022-08-19T00:48:27;20.90;99.90
36446;DHT22;22472;50.848;-1.216;2022-08-19T00:50:55;20.90;99.90
36446;DHT22;22472;50.848;-1.216;2022-08-19T00:53:24;20.90;99.90
36446;DHT22;22472;50.848;-1.216;2022-08-19T00:55:55;20.90;99.90
36446;DHT22;22472;50.848;-1.216;2022-08-19T00:58:26;20.90;99.90
36446;DHT22;22472;50.848;-1.216;2022-08-19T01:00:54;20.80;99.90
36446;DHT22;22472;50.848;-1.216;2022-08-19T01:03:22;20.80;99.90
36446;DHT22;22472;50.848;-1.216;2022-08-19T01:05:49;20.80;99.90
36446;DHT22;22472;50.848;-1.216;2022-08-19T01:08:19;20.80;99.90
36446;DHT22;22472;50.848;-1.216;2022-08-19T01:10:48;20.80;99.90
36446;DHT22;22472;50.848;-1.216;2022-08-19T01:13:16;20.80;99.90
36446;DHT22;22472;50.848;-1.216;2022-08-19T01:15:46;20.80;99.90
36446;DHT22;22472;50.848;-1.216;2022-08-19T01:18:16;20.80;99.90
36446;DHT22;22472;50.848;-1.216;2022-08-19T01:20:43;20.80;99.90
36446;DHT22;22472;50.848;-1.216;2022-08-19T01:23:13;20.70;99.90
36446;DHT22;22472;50.848;-1.216;2022-08-19T01:25:43;20.70;99.90
36446;DHT22;22472;50.848;-1.216;2022-08-19T01:28:15;20.70;99.90
36446;DHT22;22472;50.848;-1.216;2022-08-19T01:30:44;20.70;99.90
36446;DHT22;22472;50.848;-1.216;2022-08-19T01:33:12;20.80;99.90
36446;DHT22;22472;50.848;-1.216;2022-08-19T01:35:41;20.80;99.90
36446;DHT22;22472;50.848;-1.216;2022-08-19T01:38:18;20.80;99.90
36446;DHT22;22472;50.848;-1.216;2022-08-19T01:40:47;20.80;99.90
36446;DHT22;22472;50.848;-1.216;2022-08-19T01:43:14;20.80;99.90
36446;DHT22;22472;50.848;-1.216;2022-08-19T01:45:41;20.70;99.90
36446;DHT22;22472;50.848;-1.216;2022-08-19T01:48:08;20.60;99.90
36446;DHT22;22472;50.848;-1.216;2022-08-19T01:50:37;20.60;99.90
36446;DHT22;22472;50.848;-1.216;2022-08-19T01:53:06;20.60;99.90
36446;DHT22;22472;50.848;-1.216;2022-08-19T01:55:35;20.50;99.90
36446;DHT22;22472;50.848;-1.216;2022-08-19T01:58:05;20.50;99.90
36446;DHT22;22472;50.848;-1.216;2022-08-19T02:00:34;20.60;99.90
36446;DHT22;22472;50.848;-1.216;2022-08-19T02:03:01;20.60;99.90
36446;DHT22;22472;50.848;-1.216;2022-08-19T02:05:28;20.60;99.90
36446;DHT22;22472;50.848;-1.216;2022-08-19T02:08:14;20.60;99.90
36446;DHT22;22472;50.848;-1.216;2022-08-19T02:10:43;20.60;99.90
36446;DHT22;22472;50.848;-1.216;2022-08-19T02:13:12;20.60;99.90
36446;DHT22;22472;50.848;-1.216;2022-08-19T02:15:40;20.60;99.90
36446;DHT22;22472;50.848;-1.216;2022-08-19T02:18:07;20.60;99.90
36446;DHT22;22472;50.848;-1.216;2022-08-19T02:20:34;20.60;99.90
36446;DHT22;22472;50.848;-1.216;2022-08-19T02:23:02;20.50;99.90
36446;DHT22;22472;50.848;-1.216;2022-08-19T02:25:29;20.50;99.90
36446;DHT22;22472;50.848;-1.216;2022-08-19T02:27:56;20.60;99.90
36446;DHT22;22472;50.848;-1.216;2022-08-19T02:30:24;20.50;99.90
36446;DHT22;22472;50.848;-1.216;2022-08-19T02:32:52;20.50;99.90
36446;DHT22;22472;50.848;-1.216;2022-08-19T02:35:19;20.50;99.90
36446;DHT22;22472;50.848;-1.216;2022-08-19T02:37:47;20.50;99.90
36446;DHT22;22472;50.848;-1.216;2022-08-19T02:40:33;20.50;99.90
36446;DHT22;22472;50.848;-1.216;2022-08-19T02:43:00;20.50;99.90
36446;DHT22;22472;50.848;-1.216;2022-08-19T02:45:31;20.40;99.90
36446;DHT22;22472;50.848;-1.216;2022-08-19T02:47:58;20.40;99.90
36446;DHT22;22472;50.848;-1.216;2022-08-19T02:50:25;20.40;99.90
36446;DHT22;22472;50.848;-1.216;2022-08-19T02:52:52;20.40;99.90
36446;DHT22;22472;50.848;-1.216;2022-08-19T02:55:19;20.40;99.90
36446;DHT22;22472;50.848;-1.216;2022-08-19T02:57:47;20.40;99.90
36446;DHT22;22472;50.848;-1.216;2022-08-19T03:00:15;20.40;99.90
36446;DHT22;22472;50.848;-1.216;2022-08-19T03:02:43;20.30;99.90
36446;DHT22;22472;50.848;-1.216;2022-08-19T03:05:12;20.30;99.90
36446;DHT22;22472;50.848;-1.216;2022-08-19T03:07:39;20.20;99.90
36446;DHT22;22472;50.848;-1.216;2022-08-19T03:10:07;20.20;99.90
36446;DHT22;22472;50.848;-1.216;2022-08-19T03:12:36;20.20;99.90
36446;DHT22;22472;50.848;-1.216;2022-08-19T03:15:05;20.20;99.90
36446;DHT22;22472;50.848;-1.216;2022-08-19T03:17:33;20.30;99.90
36446;DHT22;22472;50.848;-1.216;2022-08-19T03:20:02;20.30;99.90
36446;DHT22;22472;50.848;-1.216;2022-08-19T03:22:30;20.30;99.90
36446;DHT22;22472;50.848;-1.216;2022-08-19T03:24:57;20.30;99.90
36446;DHT22;22472;50.848;-1.216;2022-08-19T03:27:24;20.30;99.90
36446;DHT22;22472;50.848;-1.216;2022-08-19T03:29:52;20.30;99.90
36446;DHT22;22472;50.848;-1.216;2022-08-19T03:32:19;20.30;99.90
36446;DHT22;22472;50.848;-1.216;2022-08-19T03:34:47;20.30;99.90
36446;DHT22;22472;50.848;-1.216;2022-08-19T03:37:16;20.30;99.90
36446;DHT22;22472;50.848;-1.216;2022-08-19T03:39:43;20.30;99.90
36446;DHT22;22472;50.848;-1.216;2022-08-19T03:42:11;20.30;99.90
36446;DHT22;22472;50.848;-1.216;2022-08-19T03:44:38;20.40;99.90
36446;DHT22;22472;50.848;-1.216;2022-08-19T03:47:05;20.30;99.90
36446;DHT22;22472;50.848;-1.216;2022-08-19T03:49:33;20.30;99.90
36446;DHT22;22472;50.848;-1.216;2022-08-19T03:52:01;20.30;99.90
36446;DHT22;22472;50.848;-1.216;2022-08-19T03:54:33;20.30;99.90
36446;DHT22;22472;50.848;-1.216;2022-08-19T03:57:01;20.30;99.90
36446;DHT22;22472;50.848;-1.216;2022-08-19T03:59:30;20.30;99.90
36446;DHT22;22472;50.848;-1.216;2022-08-19T04:01:59;20.20;99.90
36446;DHT22;22472;50.848;-1.216;2022-08-19T04:04:28;20.30;99.90
36446;DHT22;22472;50.848;-1.216;2022-08-19T04:06:56;20.20;99.90
36446;DHT22;22472;50.848;-1.216;2022-08-19T04:09:23;20.20;99.90
36446;DHT22;22472;50.848;-1.216;2022-08-19T04:11:55;20.20;99.90
36446;DHT22;22472;50.848;-1.216;2022-08-19T04:14:25;20.20;99.90
36446;DHT22;22472;50.848;-1.216;2022-08-19T04:16:53;20.20;99.90
36446;DHT22;22472;50.848;-1.216;2022-08-19T04:19:21;20.30;99.90
36446;DHT22;22472;50.848;-1.216;2022-08-19T04:21:51;20.30;99.90
36446;DHT22;22472;50.848;-1.216;2022-08-19T04:24:19;20.30;99.90
36446;DHT22;22472;50.848;-1.216;2022-08-19T04:26:47;20.30;99.90
36446;DHT22;22472;50.848;-1.216;2022-08-19T04:29:18;20.40;99.90
36446;DHT22;22472;50.848;-1.216;2022-08-19T04:31:48;20.40;99.90
36446;DHT22;22472;50.848;-1.216;2022-08-19T04:34:17;20.40;99.90
36446;DHT22;22472;50.848;-1.216;2022-08-19T04:36:45;20.40;99.90
36446;DHT22;22472;50.848;-1.216;2022-08-19T04:39:13;20.40;99.90
36446;DHT22;22472;50.848;-1.216;2022-08-19T04:41:41;20.30;99.90
36446;DHT22;22472;50.848;-1.216;2022-08-19T04:44:27;20.30;99.90
36446;DHT22;22472;50.848;-1.216;2022-08-19T04:46:56;20.30;99.90
36446;DHT22;22472;50.848;-1.216;2022-08-19T04:49:23;20.30;99.90
36446;DHT22;22472;50.848;-1.216;2022-08-19T04:51:53;20.30;99.90
36446;DHT22;22472;50.848;-1.216;2022-08-19T04:54:22;20.30;99.90
36446;DHT22;22472;50.848;-1.216;2022-08-19T04:56:51;20.30;99.90
36446;DHT22;22472;50.848;-1.216;2022-08-19T04:59:18;20.30;99.90
36446;DHT22;22472;50.848;-1.216;2022-08-19T05:01:47;20.30;99.90
36446;DHT22;22472;50.848;-1.216;2022-08-19T05:04:17;20.20;99.90
36446;DHT22;22472;50.848;-1.216;2022-08-19T05:06:44;20.30;99.90
36446;DHT22;22472;50.848;-1.216;2022-08-19T05:09:13;20.30;99.90
36446;DHT22;22472;50.848;-1.216;2022-08-19T05:11:40;20.30;99.90
36446;DHT22;22472;50.848;-1.216;2022-08-19T05:14:08;20.30;99.90
36446;DHT22;22472;50.848;-1.216;2022-08-19T05:16:36;20.30;99.90
36446;DHT22;22472;50.848;-1.216;2022-08-19T05:19:05;20.30;99.90
36446;DHT22;22472;50.848;-1.216;2022-08-19T05:21:49;20.40;99.90
36446;DHT22;22472;50.848;-1.216;2022-08-19T05:24:34;20.40;99.90
36446;DHT22;22472;50.848;-1.216;2022-08-19T05:27:02;20.40;99.90
36446;DHT22;22472;50.848;-1.216;2022-08-19T05:29:30;20.40;99.90
36446;DHT22;22472;50.848;-1.216;2022-08-19T05:31:58;20.40;99.90
36446;DHT22;22472;50.848;-1.216;2022-08-19T05:34:27;20.40;99.90
36446;DHT22;22472;50.848;-1.216;2022-08-19T05:36:56;20.50;99.90
36446;DHT22;22472;50.848;-1.216;2022-08-19T05:39:25;20.40;99.90
36446;DHT22;22472;50.848;-1.216;2022-08-19T05:41:54;20.50;99.90
36446;DHT22;22472;50.848;-1.216;2022-08-19T05:44:23;20.50;99.90
36446;DHT22;22472;50.848;-1.216;2022-08-19T05:46:52;20.50;99.90
36446;DHT22;22472;50.848;-1.216;2022-08-19T05:49:21;20.50;99.90
36446;DHT22;22472;50.848;-1.216;2022-08-19T05:51:50;20.50;99.90
36446;DHT22;22472;50.848;-1.216;2022-08-19T05:54:18;20.50;99.90
36446;DHT22;22472;50.848;-1.216;2022-08-19T05:56:45;20.50;99.90
36446;DHT22;22472;50.848;-1.216;2022-08-19T05:59:15;20.50;99.90
36446;DHT22;22472;50.848;-1.216;2022-08-19T06:01:44;20.50;99.90
36446;DHT22;22472;50.848;-1.216;2022-08-19T06:04:12;20.60;99.90
36446;DHT22;22472;50.848;-1.216;2022-08-19T06:06:40;20.60;99.90
36446;DHT22;22472;50.848;-1.216;2022-08-19T06:09:08;20.60;99.90
36446;DHT22;22472;50.848;-1.216;2022-08-19T06:11:38;20.60;99.90
36446;DHT22;22472;50.848;-1.216;2022-08-19T06:14:09;20.60;99.90
36446;DHT22;22472;50.848;-1.216;2022-08-19T06:16:38;20.70;99.90
36446;DHT22;22472;50.848;-1.216;2022-08-19T06:19:09;20.80;99.90
36446;DHT22;22472;50.848;-1.216;2022-08-19T06:21:37;20.80;99.90
36446;DHT22;22472;50.848;-1.216;2022-08-19T06:24:09;20.90;99.90
36446;DHT22;22472;50.848;-1.216;2022-08-19T06:26:39;21.00;99.90
36446;DHT22;22472;50.848;-1.216;2022-08-19T06:29:08;20.90;99.90
36446;DHT22;22472;50.848;-1.216;2022-08-19T06:31:35;20.90;99.90
36446;DHT22;22472;50.848;-1.216;2022-08-19T06:34:03;20.90;99.90
36446;DHT22;22472;50.848;-1.216;2022-08-19T06:36:33;20.90;99.90
36446;DHT22;22472;50.848;-1.216;2022-08-19T06:39:00;20.90;99.90
36446;DHT22;22472;50.848;-1.216;2022-08-19T06:41:29;20.90;99.90
36446;DHT22;22472;50.848;-1.216;2022-08-19T06:43:57;20.90;99.90
36446;DHT22;22472;50.848;-1.216;2022-08-19T06:46:25;20.90;99.90
36446;DHT22;22472;50.848;-1.216;2022-08-19T06:48:52;20.90;99.90
36446;DHT22;22472;50.848;-1.216;2022-08-19T06:51:20;20.90;99.90
36446;DHT22;22472;50.848;-1.216;2022-08-19T06:53:49;20.90;99.90
36446;DHT22;22472;50.848;-1.216;2022-08-19T06:56:18;21.00;99.90
36446;DHT22;22472;50.848;-1.216;2022-08-19T06:58:47;21.00;99.90
36446;DHT22;22472;50.848;-1.216;2022-08-19T07:01:16;21.00;99.90
36446;DHT22;22472;50.848;-1.216;2022-08-19T07:03:43;21.10;99.90
36446;DHT22;22472;50.848;-1.216;2022-08-19T07:06:14;21.10;99.90
36446;DHT22;22472;50.848;-1.216;2022-08-19T07:08:44;21.00;99.90
36446;DHT22;22472;50.848;-1.216;2022-08-19T07:11:14;21.00;99.90
36446;DHT22;22472;50.848;-1.216;2022-08-19T07:13:42;21.10;99.90
36446;DHT22;22472;50.848;-1.216;2022-08-19T07:16:14;21.00;99.90
36446;DHT22;22472;50.848;-1.216;2022-08-19T07:18:41;20.90;99.90
36446;DHT22;22472;50.848;-1.216;2022-08-19T07:21:13;20.90;99.90
36446;DHT22;22472;50.848;-1.216;2022-08-19T07:23:40;20.80;99.90
36446;DHT22;22472;50.848;-1.216;2022-08-19T07:26:10;20.70;99.90
36446;DHT22;22472;50.848;-1.216;2022-08-19T07:28:37;20.70;99.90
36446;DHT22;22472;50.848;-1.216;2022-08-19T07:31:06;20.60;99.90
36446;DHT22;22472;50.848;-1.216;2022-08-19T07:33:34;20.30;99.90
36446;DHT22;22472;50.848;-1.216;2022-08-19T07:36:03;20.20;99.90
36446;DHT22;22472;50.848;-1.216;2022-08-19T07:38:31;20.10;99.90
36446;DHT22;22472;50.848;-1.216;2022-08-19T07:40:59;20.00;99.90
36446;DHT22;22472;50.848;-1.216;2022-08-19T07:43:26;19.90;99.90
36446;DHT22;22472;50.848;-1.216;2022-08-19T07:45:54;19.80;99.90
36446;DHT22;22472;50.848;-1.216;2022-08-19T07:48:23;19.90;99.90
36446;DHT22;22472;50.848;-1.216;2022-08-19T07:50:52;19.80;99.90
36446;DHT22;22472;50.848;-1.216;2022-08-19T07:53:20;19.70;99.90
36446;DHT22;22472;50.848;-1.216;2022-08-19T07:55:47;19.70;99.90
36446;DHT22;22472;50.848;-1.216;2022-08-19T07:58:16;19.80;99.90
36446;DHT22;22472;50.848;-1.216;2022-08-19T08:00:46;19.80;99.90
36446;DHT22;22472;50.848;-1.216;2022-08-19T08:03:14;19.80;99.90
36446;DHT22;22472;50.848;-1.216;2022-08-19T08:05:43;19.80;99.90
36446;DHT22;22472;50.848;-1.216;2022-08-19T08:08:29;19.90;99.90
36446;DHT22;22472;50.848;-1.216;2022-08-19T08:11:15;19.80;99.90
36446;DHT22;22472;50.848;-1.216;2022-08-19T08:13:42;19.70;99.90
36446;DHT22;22472;50.848;-1.216;2022-08-19T08:16:10;19.70;99.90
36446;DHT22;22472;50.848;-1.216;2022-08-19T08:18:37;19.70;99.90
36446;DHT22;22472;50.848;-1.216;2022-08-19T08:21:08;19.80;99.90
36446;DHT22;22472;50.848;-1.216;2022-08-19T08:23:36;19.70;99.90
36446;DHT22;22472;50.848;-1.216;2022-08-19T08:26:03;19.70;99.90
36446;DHT22;22472;50.848;-1.216;2022-08-19T08:28:30;19.70;99.90
36446;DHT22;22472;50.848;-1.216;2022-08-19T08:30:58;19.70;99.90
36446;DHT22;22472;50.848;-1.216;2022-08-19T08:33:27;19.80;99.90
36446;DHT22;22472;50.848;-1.216;2022-08-19T08:35:54;19.80;99.90
36446;DHT22;22472;50.848;-1.216;2022-08-19T08:38:21;19.80;99.90
36446;DHT22;22472;50.848;-1.216;2022-08-19T08:40:53;19.90;99.90
36446;DHT22;22472;50.848;-1.216;2022-08-19T08:43:26;19.90;99.90
36446;DHT22;22472;50.848;-1.216;2022-08-19T08:45:59;19.90;99.90
36446;DHT22;22472;50.848;-1.216;2022-08-19T08:48:35;19.80;99.90
36446;DHT22;22472;50.848;-1.216;2022-08-19T08:51:06;19.60;99.90
36446;DHT22;22472;50.848;-1.216;2022-08-19T08:53:36;19.70;99.90
36446;DHT22;22472;50.848;-1.216;2022-08-19T08:56:06;19.80;99.90
36446;DHT22;22472;50.848;-1.216;2022-08-19T08:58:45;20.00;99.90
36446;DHT22;22472;50.848;-1.216;2022-08-19T09:01:13;19.90;99.90
36446;DHT22;22472;50.848;-1.216;2022-08-19T09:03:41;19.70;99.90
36446;DHT22;22472;50.848;-1.216;2022-08-19T09:06:14;19.90;99.90
36446;DHT22;22472;50.848;-1.216;2022-08-19T09:08:49;20.00;99.90
36446;DHT22;22472;50.848;-1.216;2022-08-19T09:11:30;20.20;99.90
36446;DHT22;22472;50.848;-1.216;2022-08-19T09:14:08;20.40;99.90
36446;DHT22;22472;50.848;-1.216;2022-08-19T09:16:38;20.50;99.90
36446;DHT22;22472;50.848;-1.216;2022-08-19T09:19:07;20.60;99.90
36446;DHT22;22472;50.848;-1.216;2022-08-19T09:21:37;20.70;99.90
36446;DHT22;22472;50.848;-1.216;2022-08-19T09:24:05;20.80;99.90
36446;DHT22;22472;50.848;-1.216;2022-08-19T09:26:34;20.70;99.90
36446;DHT22;22472;50.848;-1.216;2022-08-19T09:29:01;20.80;99.90
36446;DHT22;22472;50.848;-1.216;2022-08-19T09:31:30;21.00;99.90
36446;DHT22;22472;50.848;-1.216;2022-08-19T09:33:58;21.10;99.90
36446;DHT22;22472;50.848;-1.216;2022-08-19T09:36:27;21.30;99.90
36446;DHT22;22472;50.848;-1.216;2022-08-19T09:38:58;21.40;99.90
36446;DHT22;22472;50.848;-1.216;2022-08-19T09:41:27;21.50;99.90
36446;DHT22;22472;50.848;-1.216;2022-08-19T09:43:57;21.60;99.90
36446;DHT22;22472;50.848;-1.216;2022-08-19T09:46:25;21.60;99.90
36446;DHT22;22472;50.848;-1.216;2022-08-19T09:48:53;21.80;99.90
36446;DHT22;22472;50.848;-1.216;2022-08-19T09:51:25;21.70;99.90
36446;DHT22;22472;50.848;-1.216;2022-08-19T09:53:54;21.80;99.90
36446;DHT22;22472;50.848;-1.216;2022-08-19T09:56:25;21.60;99.90
36446;DHT22;22472;50.848;-1.216;2022-08-19T09:58:52;21.50;99.90
36446;DHT22;22472;50.848;-1.216;2022-08-19T10:01:22;21.40;99.90
36446;DHT22;22472;50.848;-1.216;2022-08-19T10:03:52;21.20;99.90
36446;DHT22;22472;50.848;-1.216;2022-08-19T10:06:20;21.40;99.90
36446;DHT22;22472;50.848;-1.216;2022-08-19T10:08:49;21.50;99.90
36446;DHT22;22472;50.848;-1.216;2022-08-19T10:11:17;21.30;99.90
36446;DHT22;22472;50.848;-1.216;2022-08-19T10:13:44;21.10;99.90
36446;DHT22;22472;50.848;-1.216;2022-08-19T10:16:13;21.10;99.90
36446;DHT22;22472;50.848;-1.216;2022-08-19T10:18:42;21.10;99.90
36446;DHT22;22472;50.848;-1.216;2022-08-19T10:21:11;20.90;99.90
36446;DHT22;22472;50.848;-1.216;2022-08-19T10:23:40;21.10;99.90
36446;DHT22;22472;50.848;-1.216;2022-08-19T10:26:12;21.40;99.90
36446;DHT22;22472;50.848;-1.216;2022-08-19T10:28:40;21.60;99.90
36446;DHT22;22472;50.848;-1.216;2022-08-19T10:31:08;21.90;99.90
36446;DHT22;22472;50.848;-1.216;2022-08-19T10:33:37;22.20;99.90
36446;DHT22;22472;50.848;-1.216;2022-08-19T10:36:08;22.60;99.90
36446;DHT22;22472;50.848;-1.216;2022-08-19T10:38:36;22.70;99.90
36446;DHT22;22472;50.848;-1.216;2022-08-19T10:41:08;23.30;99.90
36446;DHT22;22472;50.848;-1.216;2022-08-19T10:43:35;23.40;99.90
36446;DHT22;22472;50.848;-1.216;2022-08-19T10:46:04;23.50;99.90
36446;DHT22;22472;50.848;-1.216;2022-08-19T10:48:31;23.20;99.90
36446;DHT22;22472;50.848;-1.216;2022-08-19T10:50:59;23.20;99.90
36446;DHT22;22472;50.848;-1.216;2022-08-19T10:53:45;23.60;99.90
36446;DHT22;22472;50.848;-1.216;2022-08-19T10:56:12;23.40;99.90
36446;DHT22;22472;50.848;-1.216;2022-08-19T10:58:57;23.30;99.90
36446;DHT22;22472;50.848;-1.216;2022-08-19T11:01:24;23.40;99.90
36446;DHT22;22472;50.848;-1.216;2022-08-19T11:03:52;23.80;99.90
36446;DHT22;22472;50.848;-1.216;2022-08-19T11:06:19;24.30;99.90
36446;DHT22;22472;50.848;-1.216;2022-08-19T11:08:48;24.90;99.90
36446;DHT22;22472;50.848;-1.216;2022-08-19T11:11:15;25.00;99.90
36446;DHT22;22472;50.848;-1.216;2022-08-19T11:13:42;24.50;99.90
36446;DHT22;22472;50.848;-1.216;2022-08-19T11:16:13;24.30;99.90
36446;DHT22;22472;50.848;-1.216;2022-08-19T11:18:42;24.40;99.90
36446;DHT22;22472;50.848;-1.216;2022-08-19T11:21:12;24.30;99.90
36446;DHT22;22472;50.848;-1.216;2022-08-19T11:23:40;24.50;99.90
36446;DHT22;22472;50.848;-1.216;2022-08-19T11:26:09;24.90;99.90
36446;DHT22;22472;50.848;-1.216;2022-08-19T11:28:36;25.60;99.90
36446;DHT22;22472;50.848;-1.216;2022-08-19T11:31:04;25.80;99.90
36446;DHT22;22472;50.848;-1.216;2022-08-19T11:33:35;25.90;99.90
36446;DHT22;22472;50.848;-1.216;2022-08-19T11:36:03;26.00;99.90
36446;DHT22;22472;50.848;-1.216;2022-08-19T11:38:30;25.90;99.90
36446;DHT22;22472;50.848;-1.216;2022-08-19T11:40:58;25.30;99.90
36446;DHT22;22472;50.848;-1.216;2022-08-19T11:43:27;25.50;99.90
36446;DHT22;22472;50.848;-1.216;2022-08-19T11:45:54;25.30;99.90
36446;DHT22;22472;50.848;-1.216;2022-08-19T11:48:22;25.90;99.90
36446;DHT22;22472;50.848;-1.216;2022-08-19T11:50:51;26.20;99.90
36446;DHT22;22472;50.848;-1.216;2022-08-19T11:53:19;26.40;99.90
36446;DHT22;22472;50.848;-1.216;2022-08-19T11:55:47;27.00;99.90
36446;DHT22;22472;50.848;-1.216;2022-08-19T11:58:16;27.20;99.90
36446;DHT22;22472;50.848;-1.216;2022-08-19T12:00:45;27.20;99.90
36446;DHT22;22472;50.848;-1.216;2022-08-19T12:03:13;27.60;99.90
36446;DHT22;22472;50.848;-1.216;2022-08-19T12:05:41;27.80;99.90
36446;DHT22;22472;50.848;-1.216;2022-08-19T12:08:08;28.20;99.90
36446;DHT22;22472;50.848;-1.216;2022-08-19T12:10:37;27.50;99.90
36446;DHT22;22472;50.848;-1.216;2022-08-19T12:13:04;27.80;99.90
36446;DHT22;22472;50.848;-1.216;2022-08-19T12:15:35;27.80;99.90
36446;DHT22;22472;50.848;-1.216;2022-08-19T12:18:04;28.40;99.90
36446;DHT22;22472;50.848;-1.216;2022-08-19T12:20:34;28.30;99.90
36446;DHT22;22472;50.848;-1.216;2022-08-19T12:23:01;28.30;99.90
36446;DHT22;22472;50.848;-1.216;2022-08-19T12:25:28;28.50;99.90
36446;DHT22;22472;50.848;-1.216;2022-08-19T12:27:56;28.20;99.90
36446;DHT22;22472;50.848;-1.216;2022-08-19T12:30:26;28.10;99.90
36446;DHT22;22472;50.848;-1.216;2022-08-19T12:32:54;28.30;99.90
36446;DHT22;22472;50.848;-1.216;2022-08-19T12:35:22;28.40;99.90
36446;DHT22;22472;50.848;-1.216;2022-08-19T12:37:49;28.30;99.90
36446;DHT22;22472;50.848;-1.216;2022-08-19T12:40:16;28.20;99.90
36446;DHT22;22472;50.848;-1.216;2022-08-19T12:42:45;28.40;99.90
36446;DHT22;22472;50.848;-1.216;2022-08-19T12:45:13;28.90;99.60
36446;DHT22;22472;50.848;-1.216;2022-08-19T12:47:40;28.50;99.60
36446;DHT22;22472;50.848;-1.216;2022-08-19T12:50:07;28.60;99.00
36446;DHT22;22472;50.848;-1.216;2022-08-19T12:52:36;28.60;98.80
36446;DHT22;22472;50.848;-1.216;2022-08-19T12:55:05;28.20;98.30
36446;DHT22;22472;50.848;-1.216;2022-08-19T12:57:33;28.40;98.10
36446;DHT22;22472;50.848;-1.216;2022-08-19T13:00:05;28.00;97.90
36446;DHT22;22472;50.848;-1.216;2022-08-19T13:02:35;27.90;97.60
36446;DHT22;22472;50.848;-1.216;2022-08-19T13:05:02;28.00;97.80
36446;DHT22;22472;50.848;-1.216;2022-08-19T13:07:31;28.50;97.70
36446;DHT22;22472;50.848;-1.216;2022-08-19T13:10:00;28.80;97.80
36446;DHT22;22472;50.848;-1.216;2022-08-19T13:12:27;28.80;97.70
36446;DHT22;22472;50.848;-1.216;2022-08-19T13:14:55;28.70;97.60
36446;DHT22;22472;50.848;-1.216;2022-08-19T13:17:22;28.90;97.50
36446;DHT22;22472;50.848;-1.216;2022-08-19T13:19:49;29.00;97.00
36446;DHT22;22472;50.848;-1.216;2022-08-19T13:22:17;29.20;96.70
36446;DHT22;22472;50.848;-1.216;2022-08-19T13:24:44;29.30;96.20
36446;DHT22;22472;50.848;-1.216;2022-08-19T13:27:13;29.10;96.00
36446;DHT22;22472;50.848;-1.216;2022-08-19T13:29:40;28.90;95.90
36446;DHT22;22472;50.848;-1.216;2022-08-19T13:32:25;28.80;95.70
36446;DHT22;22472;50.848;-1.216;2022-08-19T13:35:09;29.00;95.40
36446;DHT22;22472;50.848;-1.216;2022-08-19T13:37:36;29.00;95.10
36446;DHT22;22472;50.848;-1.216;2022-08-19T13:40:11;28.70;95.10
36446;DHT22;22472;50.848;-1.216;2022-08-19T13:42:43;29.40;95.30
36446;DHT22;22472;50.848;-1.216;2022-08-19T13:45:12;29.70;95.00
36446;DHT22;22472;50.848;-1.216;2022-08-19T13:47:39;29.40;94.70
36446;DHT22;22472;50.848;-1.216;2022-08-19T13:50:09;29.80;94.70
36446;DHT22;22472;50.848;-1.216;2022-08-19T13:52:37;30.20;94.90
36446;DHT22;22472;50.848;-1.216;2022-08-19T13:55:05;29.90;94.50
36446;DHT22;22472;50.848;-1.216;2022-08-19T13:57:33;29.30;94.20
36446;DHT22;22472;50.848;-1.216;2022-08-19T14:00:02;29.00;94.50
36446;DHT22;22472;50.848;-1.216;2022-08-19T14:02:29;29.00;94.60
36446;DHT22;22472;50.848;-1.216;2022-08-19T14:04:56;29.00;94.60
36446;DHT22;22472;50.848;-1.216;2022-08-19T14:07:24;29.30;95.10
36446;DHT22;22472;50.848;-1.216;2022-08-19T14:09:51;29.10;95.10
36446;DHT22;22472;50.848;-1.216;2022-08-19T14:12:19;29.00;95.10
36446;DHT22;22472;50.848;-1.216;2022-08-19T14:14:47;28.40;95.10
36446;DHT22;22472;50.848;-1.216;2022-08-19T14:17:16;28.50;95.20
36446;DHT22;22472;50.848;-1.216;2022-08-19T14:19:43;28.90;95.40
36446;DHT22;22472;50.848;-1.216;2022-08-19T14:22:10;28.80;95.00
36446;DHT22;22472;50.848;-1.216;2022-08-19T14:24:38;29.00;95.10
36446;DHT22;22472;50.848;-1.216;2022-08-19T14:27:06;29.30;95.10
36446;DHT22;22472;50.848;-1.216;2022-08-19T14:29:33;28.70;94.90
36446;DHT22;22472;50.848;-1.216;2022-08-19T14:32:00;28.70;94.80
36446;DHT22;22472;50.848;-1.216;2022-08-19T14:34:29;28.10;94.60
36446;DHT22;22472;50.848;-1.216;2022-08-19T14:36:57;28.20;94.80
36446;DHT22;22472;50.848;-1.216;2022-08-19T14:39:24;28.30;94.90
36446;DHT22;22472;50.848;-1.216;2022-08-19T14:41:51;28.60;95.10
36446;DHT22;22472;50.848;-1.216;2022-08-19T14:44:18;28.70;94.80
36446;DHT22;22472;50.848;-1.216;2022-08-19T14:46:45;28.90;94.90
36446;DHT22;22472;50.848;-1.216;2022-08-19T14:49:13;28.40;94.70
36446;DHT22;22472;50.848;-1.216;2022-08-19T14:51:41;28.40;94.60
36446;DHT22;22472;50.848;-1.216;2022-08-19T14:54:08;28.40;94.30
36446;DHT22;22472;50.848;-1.216;2022-08-19T14:56:35;28.30;94.30
36446;DHT22;22472;50.848;-1.216;2022-08-19T14:59:02;28.20;94.40
36446;DHT22;22472;50.848;-1.216;2022-08-19T15:01:30;28.50;94.40
36446;DHT22;22472;50.848;-1.216;2022-08-19T15:03:56;28.40;94.70
36446;DHT22;22472;50.848;-1.216;2022-08-19T15:06:24;28.30;94.70
36446;DHT22;22472;50.848;-1.216;2022-08-19T15:08:53;28.00;94.90
36446;DHT22;22472;50.848;-1.216;2022-08-19T15:11:22;27.40;95.00
36446;DHT22;22472;50.848;-1.216;2022-08-19T15:13:51;27.00;95.20
36446;DHT22;22472;50.848;-1.216;2022-08-19T15:16:19;26.70;95.50
36446;DHT22;22472;50.848;-1.216;2022-08-19T15:18:49;26.40;95.80
36446;DHT22;22472;50.848;-1.216;2022-08-19T15:21:17;26.60;96.10
36446;DHT22;22472;50.848;-1.216;2022-08-19T15:23:44;27.10;96.30
36446;DHT22;22472;50.848;-1.216;2022-08-19T15:26:13;27.80;96.40